sensor_id;sensor_type;location;lat;lon;timestamp;P1;durP1;ratioP1;P2;durP2;ratioP2
59189;SDS011;50749;51.636;4.948;2023-08-01T00:02:19;1.58;;;1.00;;
59189;SDS011;50749;51.636;4.948;2023-08-01T00:04:45;2.70;;;0.90;;
59189;SDS011;50749;51.636;4.948;2023-08-01T00:07:11;3.97;;;1.10;;
59189;SDS011;50749;51.636;4.948;2023-08-01T00:09:37;2.67;;;0.80;;
59189;SDS011;50749;51.636;4.948;2023-08-01T00:12:03;2.53;;;0.90;;
59189;SDS011;50749;51.636;4.948;2023-08-01T00:14:28;1.98;;;0.98;;
59189;SDS011;50749;51.636;4.948;2023-08-01T00:16:54;2.05;;;1.10;;
59189;SDS011;50749;51.636;4.948;2023-08-01T00:19:20;2.63;;;0.90;;
59189;SDS011;50749;51.636;4.948;2023-08-01T00:21:46;2.20;;;0.90;;
59189;SDS011;50749;51.636;4.948;2023-08-01T00:24:12;2.35;;;1.17;;
59189;SDS011;50749;51.636;4.948;2023-08-01T00:26:38;1.35;;;0.95;;
59189;SDS011;50749;51.636;4.948;2023-08-01T00:29:03;1.30;;;0.80;;
59189;SDS011;50749;51.636;4.948;2023-08-01T00:31:29;1.77;;;0.90;;
59189;SDS011;50749;51.636;4.948;2023-08-01T00:33:55;2.08;;;0.90;;
59189;SDS011;50749;51.636;4.948;2023-08-01T00:36:21;3.20;;;1.15;;
59189;SDS011;50749;51.636;4.948;2023-08-01T00:38:46;1.85;;;1.00;;
59189;SDS011;50749;51.636;4.948;2023-08-01T00:41:12;2.13;;;0.80;;
59189;SDS011;50749;51.636;4.948;2023-08-01T00:43:38;4.95;;;1.05;;
59189;SDS011;50749;51.636;4.948;2023-08-01T00:46:04;5.50;;;1.20;;
59189;SDS011;50749;51.636;4.948;2023-08-01T00:48:31;1.85;;;1.10;;
59189;SDS011;50749;51.636;4.948;2023-08-01T00:50:58;2.10;;;1.13;;
59189;SDS011;50749;51.636;4.948;2023-08-01T00:53:26;3.20;;;0.85;;
59189;SDS011;50749;51.636;4.948;2023-08-01T00:55:52;3.33;;;1.10;;
59189;SDS011;50749;51.636;4.948;2023-08-01T00:58:19;2.28;;;0.98;;
59189;SDS011;50749;51.636;4.948;2023-08-01T01:00:45;3.35;;;1.02;;
59189;SDS011;50749;51.636;4.948;2023-08-01T01:03:11;3.33;;;1.15;;
59189;SDS011;50749;51.636;4.948;2023-08-01T01:05:39;4.10;;;1.52;;
59189;SDS011;50749;51.636;4.948;2023-08-01T01:08:18;2.53;;;1.00;;
59189;SDS011;50749;51.636;4.948;2023-08-01T01:10:44;3.78;;;1.33;;
59189;SDS011;50749;51.636;4.948;2023-08-01T01:13:10;3.10;;;1.30;;
59189;SDS011;50749;51.636;4.948;2023-08-01T01:15:36;1.45;;;0.80;;
59189;SDS011;50749;51.636;4.948;2023-08-01T01:18:01;3.95;;;1.10;;
59189;SDS011;50749;51.636;4.948;2023-08-01T01:20:30;1.75;;;1.08;;
59189;SDS011;50749;51.636;4.948;2023-08-01T01:22:59;2.78;;;0.90;;
59189;SDS011;50749;51.636;4.948;2023-08-01T01:25:26;4.28;;;1.17;;
59189;SDS011;50749;51.636;4.948;2023-08-01T01:27:52;4.57;;;1.60;;
59189;SDS011;50749;51.636;4.948;2023-08-01T01:30:19;3.65;;;1.15;;
59189;SDS011;50749;51.636;4.948;2023-08-01T01:32:46;3.10;;;1.27;;
59189;SDS011;50749;51.636;4.948;2023-08-01T01:35:12;4.57;;;1.50;;
59189;SDS011;50749;51.636;4.948;2023-08-01T01:37:37;3.85;;;1.10;;
59189;SDS011;50749;51.636;4.948;2023-08-01T01:40:03;4.45;;;1.70;;
59189;SDS011;50749;51.636;4.948;2023-08-01T01:42:29;3.33;;;1.20;;
59189;SDS011;50749;51.636;4.948;2023-08-01T01:44:55;3.72;;;1.15;;
59189;SDS011;50749;51.636;4.948;2023-08-01T01:47:21;3.53;;;1.30;;
59189;SDS011;50749;51.636;4.948;2023-08-01T01:49:46;3.50;;;1.38;;
59189;SDS011;50749;51.636;4.948;2023-08-01T01:52:12;4.57;;;1.40;;
59189;SDS011;50749;51.636;4.948;2023-08-01T01:54:38;3.88;;;1.27;;
59189;SDS011;50749;51.636;4.948;2023-08-01T01:57:04;5.47;;;1.48;;
59189;SDS011;50749;51.636;4.948;2023-08-01T01:59:30;2.22;;;1.10;;
59189;SDS011;50749;51.636;4.948;2023-08-01T02:01:55;3.50;;;1.55;;
59189;SDS011;50749;51.636;4.948;2023-08-01T02:04:21;5.18;;;1.90;;
59189;SDS011;50749;51.636;4.948;2023-08-01T02:06:47;4.18;;;1.08;;
59189;SDS011;50749;51.636;4.948;2023-08-01T02:09:13;2.88;;;1.23;;
59189;SDS011;50749;51.636;4.948;2023-08-01T02:11:39;3.42;;;1.50;;
59189;SDS011;50749;51.636;4.948;2023-08-01T02:14:04;5.20;;;1.50;;
59189;SDS011;50749;51.636;4.948;2023-08-01T02:16:30;3.70;;;1.40;;
59189;SDS011;50749;51.636;4.948;2023-08-01T02:18:56;5.22;;;1.45;;
59189;SDS011;50749;51.636;4.948;2023-08-01T02:21:22;3.05;;;1.38;;
59189;SDS011;50749;51.636;4.948;2023-08-01T02:23:47;3.42;;;1.35;;
59189;SDS011;50749;51.636;4.948;2023-08-01T02:26:13;5.15;;;1.35;;
59189;SDS011;50749;51.636;4.948;2023-08-01T02:28:40;5.82;;;1.75;;
59189;SDS011;50749;51.636;4.948;2023-08-01T02:31:05;4.40;;;1.50;;
59189;SDS011;50749;51.636;4.948;2023-08-01T02:33:31;3.97;;;1.40;;
59189;SDS011;50749;51.636;4.948;2023-08-01T02:35:57;3.65;;;1.50;;
59189;SDS011;50749;51.636;4.948;2023-08-01T02:38:23;3.22;;;1.60;;
59189;SDS011;50749;51.636;4.948;2023-08-01T02:40:48;4.47;;;1.67;;
59189;SDS011;50749;51.636;4.948;2023-08-01T02:43:14;4.13;;;1.50;;
59189;SDS011;50749;51.636;4.948;2023-08-01T02:45:41;4.22;;;1.52;;
59189;SDS011;50749;51.636;4.948;2023-08-01T02:48:07;6.05;;;1.63;;
59189;SDS011;50749;51.636;4.948;2023-08-01T02:50:33;4.13;;;1.52;;
59189;SDS011;50749;51.636;4.948;2023-08-01T02:52:58;3.65;;;1.27;;
59189;SDS011;50749;51.636;4.948;2023-08-01T02:55:24;3.33;;;1.50;;
59189;SDS011;50749;51.636;4.948;2023-08-01T02:57:50;6.22;;;2.13;;
59189;SDS011;50749;51.636;4.948;2023-08-01T03:00:15;3.53;;;1.60;;
59189;SDS011;50749;51.636;4.948;2023-08-01T03:02:42;6.22;;;1.88;;
59189;SDS011;50749;51.636;4.948;2023-08-01T03:05:08;5.03;;;1.73;;
59189;SDS011;50749;51.636;4.948;2023-08-01T03:07:35;5.75;;;1.20;;
59189;SDS011;50749;51.636;4.948;2023-08-01T03:10:01;5.15;;;1.75;;
59189;SDS011;50749;51.636;4.948;2023-08-01T03:12:27;4.28;;;1.55;;
59189;SDS011;50749;51.636;4.948;2023-08-01T03:14:53;2.90;;;1.20;;
59189;SDS011;50749;51.636;4.948;2023-08-01T03:17:19;3.67;;;1.60;;
59189;SDS011;50749;51.636;4.948;2023-08-01T03:19:44;2.80;;;1.20;;
59189;SDS011;50749;51.636;4.948;2023-08-01T03:22:11;5.43;;;1.60;;
59189;SDS011;50749;51.636;4.948;2023-08-01T03:24:37;3.88;;;1.90;;
59189;SDS011;50749;51.636;4.948;2023-08-01T03:27:02;5.82;;;1.63;;
59189;SDS011;50749;51.636;4.948;2023-08-01T03:29:29;3.30;;;1.30;;
59189;SDS011;50749;51.636;4.948;2023-08-01T03:31:54;3.72;;;1.42;;
59189;SDS011;50749;51.636;4.948;2023-08-01T03:34:20;4.75;;;2.17;;
59189;SDS011;50749;51.636;4.948;2023-08-01T03:36:46;5.07;;;1.40;;
59189;SDS011;50749;51.636;4.948;2023-08-01T03:39:11;5.35;;;2.15;;
59189;SDS011;50749;51.636;4.948;2023-08-01T03:41:37;4.53;;;1.63;;
59189;SDS011;50749;51.636;4.948;2023-08-01T03:44:03;5.82;;;1.90;;
59189;SDS011;50749;51.636;4.948;2023-08-01T03:46:29;4.25;;;1.85;;
59189;SDS011;50749;51.636;4.948;2023-08-01T03:48:55;4.93;;;1.88;;
59189;SDS011;50749;51.636;4.948;2023-08-01T03:51:20;3.22;;;1.63;;
59189;SDS011;50749;51.636;4.948;2023-08-01T03:53:47;5.68;;;1.85;;
59189;SDS011;50749;51.636;4.948;2023-08-01T03:56:13;8.13;;;2.10;;
59189;SDS011;50749;51.636;4.948;2023-08-01T03:58:38;3.65;;;1.85;;
59189;SDS011;50749;51.636;4.948;2023-08-01T04:01:04;7.65;;;1.42;;
59189;SDS011;50749;51.636;4.948;2023-08-01T04:03:32;3.53;;;1.92;;
59189;SDS011;50749;51.636;4.948;2023-08-01T04:05:57;5.22;;;1.90;;
59189;SDS011;50749;51.636;4.948;2023-08-01T04:08:23;4.32;;;1.90;;
59189;SDS011;50749;51.636;4.948;2023-08-01T04:10:49;4.65;;;2.00;;
59189;SDS011;50749;51.636;4.948;2023-08-01T04:13:15;5.07;;;1.70;;
59189;SDS011;50749;51.636;4.948;2023-08-01T04:15:41;4.15;;;1.60;;
59189;SDS011;50749;51.636;4.948;2023-08-01T04:18:07;3.67;;;1.67;;
59189;SDS011;50749;51.636;4.948;2023-08-01T04:20:33;4.75;;;1.80;;
59189;SDS011;50749;51.636;4.948;2023-08-01T04:22:58;4.57;;;1.77;;
59189;SDS011;50749;51.636;4.948;2023-08-01T04:25:24;5.03;;;1.83;;
59189;SDS011;50749;51.636;4.948;2023-08-01T04:27:52;5.65;;;1.70;;
59189;SDS011;50749;51.636;4.948;2023-08-01T04:30:18;9.02;;;2.03;;
59189;SDS011;50749;51.636;4.948;2023-08-01T04:32:44;4.07;;;1.63;;
59189;SDS011;50749;51.636;4.948;2023-08-01T04:35:10;3.15;;;1.60;;
59189;SDS011;50749;51.636;4.948;2023-08-01T04:37:36;5.35;;;1.70;;
59189;SDS011;50749;51.636;4.948;2023-08-01T04:40:02;4.18;;;2.13;;
59189;SDS011;50749;51.636;4.948;2023-08-01T04:42:28;4.43;;;1.67;;
59189;SDS011;50749;51.636;4.948;2023-08-01T04:44:54;4.32;;;1.27;;
59189;SDS011;50749;51.636;4.948;2023-08-01T04:47:20;5.53;;;2.03;;
59189;SDS011;50749;51.636;4.948;2023-08-01T04:49:46;4.55;;;1.88;;
59189;SDS011;50749;51.636;4.948;2023-08-01T04:52:12;4.25;;;1.52;;
59189;SDS011;50749;51.636;4.948;2023-08-01T04:54:38;4.18;;;1.63;;
59189;SDS011;50749;51.636;4.948;2023-08-01T04:57:04;5.13;;;1.80;;
59189;SDS011;50749;51.636;4.948;2023-08-01T04:59:30;5.40;;;2.10;;
59189;SDS011;50749;51.636;4.948;2023-08-01T05:01:56;4.63;;;1.98;;
59189;SDS011;50749;51.636;4.948;2023-08-01T05:04:21;3.88;;;1.73;;
59189;SDS011;50749;51.636;4.948;2023-08-01T05:06:47;3.60;;;1.80;;
59189;SDS011;50749;51.636;4.948;2023-08-01T05:09:13;5.15;;;2.42;;
59189;SDS011;50749;51.636;4.948;2023-08-01T05:11:39;4.82;;;2.00;;
59189;SDS011;50749;51.636;4.948;2023-08-01T05:14:04;4.82;;;2.33;;
59189;SDS011;50749;51.636;4.948;2023-08-01T05:16:31;3.95;;;2.03;;
59189;SDS011;50749;51.636;4.948;2023-08-01T05:18:56;3.40;;;1.92;;
59189;SDS011;50749;51.636;4.948;2023-08-01T05:21:22;3.92;;;1.75;;
59189;SDS011;50749;51.636;4.948;2023-08-01T05:23:48;5.63;;;2.08;;
59189;SDS011;50749;51.636;4.948;2023-08-01T05:26:14;5.88;;;2.08;;
59189;SDS011;50749;51.636;4.948;2023-08-01T05:28:39;6.65;;;1.98;;
59189;SDS011;50749;51.636;4.948;2023-08-01T05:31:05;4.00;;;1.77;;
59189;SDS011;50749;51.636;4.948;2023-08-01T05:33:31;4.53;;;2.05;;
59189;SDS011;50749;51.636;4.948;2023-08-01T05:35:57;4.88;;;2.17;;
59189;SDS011;50749;51.636;4.948;2023-08-01T05:38:22;5.13;;;2.30;;
59189;SDS011;50749;51.636;4.948;2023-08-01T05:40:48;4.68;;;1.95;;
59189;SDS011;50749;51.636;4.948;2023-08-01T05:43:14;5.47;;;1.95;;
59189;SDS011;50749;51.636;4.948;2023-08-01T05:45:40;4.40;;;2.10;;
59189;SDS011;50749;51.636;4.948;2023-08-01T05:48:05;5.57;;;2.55;;
59189;SDS011;50749;51.636;4.948;2023-08-01T05:50:31;3.50;;;1.88;;
59189;SDS011;50749;51.636;4.948;2023-08-01T05:52:57;7.75;;;2.55;;
59189;SDS011;50749;51.636;4.948;2023-08-01T05:55:23;4.18;;;2.00;;
59189;SDS011;50749;51.636;4.948;2023-08-01T05:57:48;5.90;;;2.30;;
59189;SDS011;50749;51.636;4.948;2023-08-01T06:00:18;6.55;;;2.33;;
59189;SDS011;50749;51.636;4.948;2023-08-01T06:02:47;4.10;;;2.08;;
59189;SDS011;50749;51.636;4.948;2023-08-01T06:05:13;5.32;;;1.95;;
59189;SDS011;50749;51.636;4.948;2023-08-01T06:07:41;4.28;;;1.85;;
59189;SDS011;50749;51.636;4.948;2023-08-01T06:10:07;5.55;;;1.75;;
59189;SDS011;50749;51.636;4.948;2023-08-01T06:12:33;4.43;;;2.00;;
59189;SDS011;50749;51.636;4.948;2023-08-01T06:14:59;4.55;;;2.53;;
59189;SDS011;50749;51.636;4.948;2023-08-01T06:17:25;3.13;;;1.65;;
59189;SDS011;50749;51.636;4.948;2023-08-01T06:19:51;5.35;;;1.95;;
59189;SDS011;50749;51.636;4.948;2023-08-01T06:22:17;5.18;;;2.00;;
59189;SDS011;50749;51.636;4.948;2023-08-01T06:24:43;5.47;;;2.00;;
59189;SDS011;50749;51.636;4.948;2023-08-01T06:27:09;3.15;;;1.70;;
59189;SDS011;50749;51.636;4.948;2023-08-01T06:29:35;3.47;;;1.60;;
59189;SDS011;50749;51.636;4.948;2023-08-01T06:32:00;3.85;;;1.70;;
59189;SDS011;50749;51.636;4.948;2023-08-01T06:34:26;6.22;;;2.20;;
59189;SDS011;50749;51.636;4.948;2023-08-01T06:36:52;6.25;;;2.50;;
59189;SDS011;50749;51.636;4.948;2023-08-01T06:39:18;3.50;;;1.80;;
59189;SDS011;50749;51.636;4.948;2023-08-01T06:41:44;6.10;;;2.00;;
59189;SDS011;50749;51.636;4.948;2023-08-01T06:44:10;4.25;;;2.08;;
59189;SDS011;50749;51.636;4.948;2023-08-01T06:46:35;4.05;;;2.00;;
59189;SDS011;50749;51.636;4.948;2023-08-01T06:49:01;6.50;;;1.90;;
59189;SDS011;50749;51.636;4.948;2023-08-01T06:51:27;5.13;;;2.28;;
59189;SDS011;50749;51.636;4.948;2023-08-01T06:53:53;4.43;;;2.17;;
59189;SDS011;50749;51.636;4.948;2023-08-01T06:56:18;5.45;;;1.90;;
59189;SDS011;50749;51.636;4.948;2023-08-01T06:58:44;5.88;;;2.10;;
59189;SDS011;50749;51.636;4.948;2023-08-01T07:01:10;6.40;;;2.45;;
59189;SDS011;50749;51.636;4.948;2023-08-01T07:03:36;6.28;;;2.10;;
59189;SDS011;50749;51.636;4.948;2023-08-01T07:06:01;3.60;;;2.50;;
59189;SDS011;50749;51.636;4.948;2023-08-01T07:08:27;3.45;;;1.73;;
59189;SDS011;50749;51.636;4.948;2023-08-01T07:10:53;6.60;;;2.10;;
59189;SDS011;50749;51.636;4.948;2023-08-01T07:13:19;7.53;;;2.28;;
59189;SDS011;50749;51.636;4.948;2023-08-01T07:15:45;5.50;;;2.78;;
59189;SDS011;50749;51.636;4.948;2023-08-01T07:18:11;5.57;;;2.20;;
59189;SDS011;50749;51.636;4.948;2023-08-01T07:20:36;4.68;;;1.92;;
59189;SDS011;50749;51.636;4.948;2023-08-01T07:23:02;8.07;;;2.55;;
59189;SDS011;50749;51.636;4.948;2023-08-01T07:25:28;5.13;;;2.08;;
59189;SDS011;50749;51.636;4.948;2023-08-01T07:27:53;3.63;;;1.77;;
59189;SDS011;50749;51.636;4.948;2023-08-01T07:30:19;4.55;;;2.00;;
59189;SDS011;50749;51.636;4.948;2023-08-01T07:32:45;9.30;;;2.33;;
59189;SDS011;50749;51.636;4.948;2023-08-01T07:35:12;5.03;;;2.10;;
59189;SDS011;50749;51.636;4.948;2023-08-01T07:37:39;5.25;;;1.90;;
59189;SDS011;50749;51.636;4.948;2023-08-01T07:40:08;3.95;;;1.48;;
59189;SDS011;50749;51.636;4.948;2023-08-01T07:42:34;5.93;;;1.95;;
59189;SDS011;50749;51.636;4.948;2023-08-01T07:45:00;3.78;;;1.77;;
59189;SDS011;50749;51.636;4.948;2023-08-01T07:47:25;5.10;;;1.80;;
59189;SDS011;50749;51.636;4.948;2023-08-01T07:49:51;6.47;;;2.90;;
59189;SDS011;50749;51.636;4.948;2023-08-01T07:52:17;5.88;;;2.13;;
59189;SDS011;50749;51.636;4.948;2023-08-01T07:54:43;4.93;;;1.95;;
59189;SDS011;50749;51.636;4.948;2023-08-01T07:57:09;10.45;;;2.22;;
59189;SDS011;50749;51.636;4.948;2023-08-01T07:59:35;8.95;;;2.00;;
59189;SDS011;50749;51.636;4.948;2023-08-01T08:02:00;6.70;;;1.80;;
59189;SDS011;50749;51.636;4.948;2023-08-01T08:04:26;3.78;;;1.70;;
59189;SDS011;50749;51.636;4.948;2023-08-01T08:06:52;5.97;;;2.03;;
59189;SDS011;50749;51.636;4.948;2023-08-01T08:09:20;6.03;;;2.22;;
59189;SDS011;50749;51.636;4.948;2023-08-01T08:11:47;5.22;;;1.77;;
59189;SDS011;50749;51.636;4.948;2023-08-01T08:14:13;6.55;;;1.73;;
59189;SDS011;50749;51.636;4.948;2023-08-01T08:16:40;6.93;;;1.92;;
59189;SDS011;50749;51.636;4.948;2023-08-01T08:19:06;8.88;;;2.10;;
59189;SDS011;50749;51.636;4.948;2023-08-01T08:21:31;5.45;;;1.50;;
59189;SDS011;50749;51.636;4.948;2023-08-01T08:23:57;5.18;;;1.98;;
59189;SDS011;50749;51.636;4.948;2023-08-01T08:26:23;8.15;;;1.83;;
59189;SDS011;50749;51.636;4.948;2023-08-01T08:28:49;6.00;;;1.75;;
59189;SDS011;50749;51.636;4.948;2023-08-01T08:31:15;14.65;;;1.90;;
59189;SDS011;50749;51.636;4.948;2023-08-01T08:33:40;7.60;;;1.67;;
59189;SDS011;50749;51.636;4.948;2023-08-01T08:36:06;7.45;;;1.95;;
59189;SDS011;50749;51.636;4.948;2023-08-01T08:38:32;5.40;;;1.90;;
59189;SDS011;50749;51.636;4.948;2023-08-01T08:41:01;8.18;;;2.88;;
59189;SDS011;50749;51.636;4.948;2023-08-01T08:43:32;7.70;;;2.00;;
59189;SDS011;50749;51.636;4.948;2023-08-01T08:46:00;5.88;;;1.88;;
59189;SDS011;50749;51.636;4.948;2023-08-01T08:48:26;7.95;;;1.90;;
59189;SDS011;50749;51.636;4.948;2023-08-01T08:50:54;5.20;;;2.08;;
59189;SDS011;50749;51.636;4.948;2023-08-01T08:53:25;6.32;;;2.13;;
59189;SDS011;50749;51.636;4.948;2023-08-01T08:55:51;7.90;;;1.92;;
59189;SDS011;50749;51.636;4.948;2023-08-01T08:58:17;8.55;;;1.70;;
59189;SDS011;50749;51.636;4.948;2023-08-01T09:00:43;8.30;;;2.00;;
59189;SDS011;50749;51.636;4.948;2023-08-01T09:03:10;6.82;;;1.55;;
59189;SDS011;50749;51.636;4.948;2023-08-01T09:05:49;5.88;;;1.75;;
59189;SDS011;50749;51.636;4.948;2023-08-01T09:08:17;3.78;;;1.45;;
59189;SDS011;50749;51.636;4.948;2023-08-01T09:10:45;4.95;;;1.60;;
59189;SDS011;50749;51.636;4.948;2023-08-01T09:13:12;6.38;;;1.80;;
59189;SDS011;50749;51.636;4.948;2023-08-01T09:15:38;3.95;;;1.58;;
59189;SDS011;50749;51.636;4.948;2023-08-01T09:18:06;5.03;;;1.48;;
59189;SDS011;50749;51.636;4.948;2023-08-01T09:20:48;6.70;;;1.92;;
59189;SDS011;50749;51.636;4.948;2023-08-01T09:23:16;5.18;;;1.67;;
59189;SDS011;50749;51.636;4.948;2023-08-01T09:25:42;10.60;;;1.67;;
59189;SDS011;50749;51.636;4.948;2023-08-01T09:28:16;7.70;;;1.73;;
59189;SDS011;50749;51.636;4.948;2023-08-01T09:30:45;6.22;;;2.20;;
59189;SDS011;50749;51.636;4.948;2023-08-01T09:33:13;5.82;;;1.75;;
59189;SDS011;50749;51.636;4.948;2023-08-01T09:35:38;6.43;;;2.00;;
59189;SDS011;50749;51.636;4.948;2023-08-01T09:38:04;8.73;;;1.60;;
59189;SDS011;50749;51.636;4.948;2023-08-01T09:40:39;5.93;;;1.67;;
59189;SDS011;50749;51.636;4.948;2023-08-01T09:43:05;5.50;;;1.63;;
59189;SDS011;50749;51.636;4.948;2023-08-01T09:45:31;6.03;;;1.77;;
59189;SDS011;50749;51.636;4.948;2023-08-01T09:47:59;4.25;;;1.30;;
59189;SDS011;50749;51.636;4.948;2023-08-01T09:50:25;7.53;;;1.60;;
59189;SDS011;50749;51.636;4.948;2023-08-01T09:52:51;5.15;;;1.40;;
59189;SDS011;50749;51.636;4.948;2023-08-01T09:55:36;5.72;;;1.92;;
59189;SDS011;50749;51.636;4.948;2023-08-01T09:58:03;5.78;;;1.40;;
59189;SDS011;50749;51.636;4.948;2023-08-01T10:00:29;5.40;;;1.58;;
59189;SDS011;50749;51.636;4.948;2023-08-01T10:02:59;3.90;;;1.88;;
59189;SDS011;50749;51.636;4.948;2023-08-01T10:05:26;2.88;;;1.30;;
59189;SDS011;50749;51.636;4.948;2023-08-01T10:07:57;5.53;;;1.42;;
59189;SDS011;50749;51.636;4.948;2023-08-01T10:10:25;4.40;;;1.20;;
59189;SDS011;50749;51.636;4.948;2023-08-01T10:12:51;6.30;;;1.40;;
59189;SDS011;50749;51.636;4.948;2023-08-01T10:15:17;6.90;;;2.03;;
59189;SDS011;50749;51.636;4.948;2023-08-01T10:17:43;4.78;;;1.17;;
59189;SDS011;50749;51.636;4.948;2023-08-01T10:20:09;3.92;;;1.27;;
59189;SDS011;50749;51.636;4.948;2023-08-01T10:22:37;3.65;;;1.55;;
59189;SDS011;50749;51.636;4.948;2023-08-01T10:25:05;5.00;;;1.52;;
59189;SDS011;50749;51.636;4.948;2023-08-01T10:27:32;7.85;;;1.50;;
59189;SDS011;50749;51.636;4.948;2023-08-01T10:30:01;5.72;;;1.42;;
59189;SDS011;50749;51.636;4.948;2023-08-01T10:34:59;6.93;;;1.27;;
59189;SDS011;50749;51.636;4.948;2023-08-01T10:37:26;6.00;;;1.45;;
59189;SDS011;50749;51.636;4.948;2023-08-01T10:39:58;7.07;;;1.40;;
59189;SDS011;50749;51.636;4.948;2023-08-01T10:42:25;4.05;;;1.27;;
59189;SDS011;50749;51.636;4.948;2023-08-01T10:44:51;4.28;;;1.38;;
59189;SDS011;50749;51.636;4.948;2023-08-01T10:47:26;4.05;;;1.50;;
59189;SDS011;50749;51.636;4.948;2023-08-01T10:49:52;5.85;;;1.60;;
59189;SDS011;50749;51.636;4.948;2023-08-01T10:52:19;6.57;;;1.58;;
59189;SDS011;50749;51.636;4.948;2023-08-01T10:54:45;4.75;;;1.45;;
59189;SDS011;50749;51.636;4.948;2023-08-01T10:57:15;2.70;;;1.05;;
59189;SDS011;50749;51.636;4.948;2023-08-01T10:59:45;5.38;;;1.55;;
59189;SDS011;50749;51.636;4.948;2023-08-01T11:02:11;5.25;;;1.42;;
59189;SDS011;50749;51.636;4.948;2023-08-01T11:04:36;6.22;;;1.40;;
59189;SDS011;50749;51.636;4.948;2023-08-01T11:07:03;3.90;;;1.20;;
59189;SDS011;50749;51.636;4.948;2023-08-01T11:09:29;7.03;;;1.33;;
59189;SDS011;50749;51.636;4.948;2023-08-01T11:11:56;3.72;;;1.20;;
59189;SDS011;50749;51.636;4.948;2023-08-01T11:14:23;6.80;;;1.52;;
59189;SDS011;50749;51.636;4.948;2023-08-01T11:16:51;4.70;;;1.20;;
59189;SDS011;50749;51.636;4.948;2023-08-01T11:21:53;3.83;;;1.63;;
59189;SDS011;50749;51.636;4.948;2023-08-01T11:24:19;3.28;;;1.33;;
59189;SDS011;50749;51.636;4.948;2023-08-01T11:26:46;6.40;;;1.52;;
59189;SDS011;50749;51.636;4.948;2023-08-01T11:29:13;5.00;;;1.30;;
59189;SDS011;50749;51.636;4.948;2023-08-01T11:31:40;4.07;;;1.17;;
59189;SDS011;50749;51.636;4.948;2023-08-01T11:34:09;3.53;;;1.27;;
59189;SDS011;50749;51.636;4.948;2023-08-01T11:36:36;7.57;;;1.40;;
59189;SDS011;50749;51.636;4.948;2023-08-01T11:39:02;4.75;;;1.13;;
59189;SDS011;50749;51.636;4.948;2023-08-01T11:41:28;7.60;;;1.80;;
59189;SDS011;50749;51.636;4.948;2023-08-01T11:43:55;5.80;;;1.40;;
59189;SDS011;50749;51.636;4.948;2023-08-01T11:46:30;3.25;;;1.20;;
59189;SDS011;50749;51.636;4.948;2023-08-01T11:48:57;6.25;;;1.65;;
59189;SDS011;50749;51.636;4.948;2023-08-01T11:51:25;7.55;;;1.30;;
59189;SDS011;50749;51.636;4.948;2023-08-01T11:54:00;4.70;;;1.55;;
59189;SDS011;50749;51.636;4.948;2023-08-01T11:56:27;5.30;;;1.52;;
59189;SDS011;50749;51.636;4.948;2023-08-01T11:58:53;4.32;;;1.50;;
59189;SDS011;50749;51.636;4.948;2023-08-01T12:01:19;3.95;;;1.20;;
59189;SDS011;50749;51.636;4.948;2023-08-01T12:03:51;4.53;;;1.38;;
59189;SDS011;50749;51.636;4.948;2023-08-01T12:06:22;2.67;;;1.00;;
59189;SDS011;50749;51.636;4.948;2023-08-01T12:08:49;5.47;;;1.48;;
59189;SDS011;50749;51.636;4.948;2023-08-01T12:11:17;7.07;;;1.60;;
59189;SDS011;50749;51.636;4.948;2023-08-01T12:13:47;4.60;;;1.42;;
59189;SDS011;50749;51.636;4.948;2023-08-01T12:16:25;2.40;;;1.00;;
59189;SDS011;50749;51.636;4.948;2023-08-01T12:18:50;5.22;;;1.30;;
59189;SDS011;50749;51.636;4.948;2023-08-01T12:21:16;3.20;;;0.85;;
59189;SDS011;50749;51.636;4.948;2023-08-01T12:23:42;5.30;;;1.33;;
59189;SDS011;50749;51.636;4.948;2023-08-01T12:26:08;3.72;;;1.45;;
59189;SDS011;50749;51.636;4.948;2023-08-01T12:28:34;4.57;;;1.52;;
59189;SDS011;50749;51.636;4.948;2023-08-01T12:31:00;5.55;;;1.20;;
59189;SDS011;50749;51.636;4.948;2023-08-01T12:33:26;6.45;;;1.35;;
59189;SDS011;50749;51.636;4.948;2023-08-01T12:35:51;3.15;;;1.02;;
59189;SDS011;50749;51.636;4.948;2023-08-01T12:38:17;4.65;;;1.92;;
59189;SDS011;50749;51.636;4.948;2023-08-01T12:40:43;5.82;;;1.15;;
59189;SDS011;50749;51.636;4.948;2023-08-01T12:43:09;7.43;;;1.70;;
59189;SDS011;50749;51.636;4.948;2023-08-01T12:45:34;4.00;;;1.33;;
59189;SDS011;50749;51.636;4.948;2023-08-01T12:48:00;6.15;;;1.73;;
59189;SDS011;50749;51.636;4.948;2023-08-01T12:50:26;7.45;;;1.38;;
59189;SDS011;50749;51.636;4.948;2023-08-01T12:52:51;4.78;;;1.27;;
59189;SDS011;50749;51.636;4.948;2023-08-01T12:55:17;6.85;;;1.60;;
59189;SDS011;50749;51.636;4.948;2023-08-01T12:57:43;4.68;;;1.20;;
59189;SDS011;50749;51.636;4.948;2023-08-01T13:00:09;2.78;;;1.38;;
59189;SDS011;50749;51.636;4.948;2023-08-01T13:02:36;5.50;;;1.40;;
59189;SDS011;50749;51.636;4.948;2023-08-01T13:05:03;6.07;;;1.95;;
59189;SDS011;50749;51.636;4.948;2023-08-01T13:07:29;6.75;;;1.20;;
59189;SDS011;50749;51.636;4.948;2023-08-01T13:10:02;4.22;;;1.17;;
59189;SDS011;50749;51.636;4.948;2023-08-01T13:12:28;5.30;;;1.60;;
59189;SDS011;50749;51.636;4.948;2023-08-01T13:14:54;6.68;;;1.55;;
59189;SDS011;50749;51.636;4.948;2023-08-01T13:17:20;5.63;;;1.63;;
59189;SDS011;50749;51.636;4.948;2023-08-01T13:19:46;4.70;;;1.50;;
59189;SDS011;50749;51.636;4.948;2023-08-01T13:22:12;5.35;;;1.58;;
59189;SDS011;50749;51.636;4.948;2023-08-01T13:24:38;5.90;;;1.35;;
59189;SDS011;50749;51.636;4.948;2023-08-01T13:27:04;3.55;;;1.20;;
59189;SDS011;50749;51.636;4.948;2023-08-01T13:29:30;8.60;;;1.52;;
59189;SDS011;50749;51.636;4.948;2023-08-01T13:31:56;5.85;;;1.02;;
59189;SDS011;50749;51.636;4.948;2023-08-01T13:34:21;4.88;;;1.10;;
59189;SDS011;50749;51.636;4.948;2023-08-01T13:36:47;10.52;;;1.50;;
59189;SDS011;50749;51.636;4.948;2023-08-01T13:39:13;4.78;;;1.33;;
59189;SDS011;50749;51.636;4.948;2023-08-01T13:41:39;4.50;;;1.05;;
59189;SDS011;50749;51.636;4.948;2023-08-01T13:44:04;3.15;;;1.27;;
59189;SDS011;50749;51.636;4.948;2023-08-01T13:46:30;4.85;;;1.20;;
59189;SDS011;50749;51.636;4.948;2023-08-01T13:48:56;9.82;;;1.48;;
59189;SDS011;50749;51.636;4.948;2023-08-01T13:51:22;6.13;;;1.30;;
59189;SDS011;50749;51.636;4.948;2023-08-01T13:53:48;6.28;;;1.45;;
59189;SDS011;50749;51.636;4.948;2023-08-01T13:56:13;3.67;;;0.90;;
59189;SDS011;50749;51.636;4.948;2023-08-01T13:58:39;6.90;;;1.30;;
59189;SDS011;50749;51.636;4.948;2023-08-01T14:01:06;5.07;;;1.20;;
59189;SDS011;50749;51.636;4.948;2023-08-01T14:03:33;3.88;;;1.00;;
59189;SDS011;50749;51.636;4.948;2023-08-01T14:06:03;5.53;;;1.40;;
59189;SDS011;50749;51.636;4.948;2023-08-01T14:08:33;8.32;;;1.33;;
59189;SDS011;50749;51.636;4.948;2023-08-01T14:10:58;10.05;;;1.30;;
59189;SDS011;50749;51.636;4.948;2023-08-01T14:13:25;5.18;;;1.75;;
59189;SDS011;50749;51.636;4.948;2023-08-01T14:15:50;3.83;;;1.13;;
59189;SDS011;50749;51.636;4.948;2023-08-01T14:18:17;3.75;;;1.10;;
59189;SDS011;50749;51.636;4.948;2023-08-01T14:20:42;8.07;;;1.75;;
59189;SDS011;50749;51.636;4.948;2023-08-01T14:23:08;4.75;;;1.40;;
59189;SDS011;50749;51.636;4.948;2023-08-01T14:25:34;5.72;;;1.25;;
59189;SDS011;50749;51.636;4.948;2023-08-01T14:28:01;2.72;;;1.10;;
59189;SDS011;50749;51.636;4.948;2023-08-01T14:30:27;4.43;;;1.10;;
59189;SDS011;50749;51.636;4.948;2023-08-01T14:32:59;4.60;;;1.05;;
59189;SDS011;50749;51.636;4.948;2023-08-01T14:35:29;8.13;;;1.55;;
59189;SDS011;50749;51.636;4.948;2023-08-01T14:37:55;3.30;;;0.90;;
59189;SDS011;50749;51.636;4.948;2023-08-01T14:40:21;2.75;;;0.93;;
59189;SDS011;50749;51.636;4.948;2023-08-01T14:42:47;2.33;;;1.08;;
59189;SDS011;50749;51.636;4.948;2023-08-01T14:45:13;8.30;;;0.93;;
59189;SDS011;50749;51.636;4.948;2023-08-01T14:47:40;4.40;;;0.98;;
59189;SDS011;50749;51.636;4.948;2023-08-01T14:50:07;3.70;;;1.00;;